createdAt,value
2018-08-09T00:03:36.819Z,68
2018-08-09T00:08:36.816Z,68.2
2018-08-09T00:13:37.036Z,70
2018-08-09T00:18:36.955Z,69.9
2018-08-09T00:23:36.831Z,69.9
2018-08-09T00:28:36.958Z,70
2018-08-09T00:33:37.026Z,69.9
2018-08-09T00:38:37.215Z,71.2
2018-08-09T00:43:49.372Z,71.3
2018-08-09T00:48:49.105Z,71.8
2018-08-09T00:53:49.292Z,73.1
2018-08-09T00:58:49.317Z,72.4
2018-08-09T01:03:49.257Z,72.8
2018-08-09T01:08:49.124Z,73.7
2018-08-09T01:13:49.321Z,73
2018-08-09T01:18:49.240Z,73.3
2018-08-09T01:23:49.136Z,73.7
2018-08-09T01:28:49.321Z,73.9
2018-08-09T01:33:49.224Z,73.4
2018-08-09T01:38:49.278Z,73.7
2018-08-09T01:43:49.215Z,73.2
2018-08-09T01:48:49.225Z,75.4
2018-08-09T01:54:01.666Z,74.2
2018-08-09T01:59:01.382Z,75.9
2018-08-09T02:04:01.331Z,75.7
2018-08-09T02:09:01.577Z,75.4
2018-08-09T02:14:01.515Z,75.4
2018-08-09T02:19:01.354Z,76.4
2018-08-09T02:24:01.406Z,76.7
2018-08-09T02:29:01.400Z,76.1
2018-08-09T02:34:01.396Z,77.7
2018-08-09T02:39:13.532Z,77.1
2018-08-09T02:44:13.206Z,77.3
2018-08-09T02:49:13.363Z,76.9
2018-08-09T02:54:13.462Z,78.2
2018-08-09T02:59:13.382Z,76.5
2018-08-09T03:04:13.251Z,78.1
2018-08-09T03:09:13.454Z,78.9
2018-08-09T03:14:13.321Z,78.4
2018-08-09T03:19:13.323Z,77.8
2018-08-09T03:24:13.438Z,78.1
2018-08-09T03:29:13.486Z,78.8
2018-08-09T03:34:13.334Z,78.9
2018-08-09T03:39:13.292Z,78.8
2018-08-09T03:44:13.471Z,79.5
2018-08-09T03:49:25.320Z,78.6
2018-08-09T03:54:25.251Z,84.4
2018-08-09T03:59:25.292Z,80.2
2018-08-09T04:04:25.193Z,79.9
2018-08-09T04:09:25.197Z,79.7
2018-08-09T04:14:25.060Z,78.4
2018-08-09T04:19:25.326Z,80.2
2018-08-09T04:24:25.065Z,80.4
2018-08-09T04:29:25.281Z,79.9
2018-08-09T04:34:40.292Z,80.3
2018-08-09T04:39:40.166Z,79.2
2018-08-09T04:44:40.120Z,80.1
2018-08-09T04:49:40.021Z,78.3
2018-08-09T04:54:40.005Z,78
2018-08-09T04:59:40.894Z,76.5
2018-08-09T05:04:40.762Z,76.1
2018-08-09T05:09:40.604Z,74.3
2018-08-09T05:14:41.242Z,74.5
2018-08-09T05:19:40.766Z,73.9
2018-08-09T05:24:40.818Z,72.4
2018-08-09T05:29:40.622Z,71.7
2018-08-09T05:34:41.302Z,72.2
2018-08-09T05:39:41.031Z,71.2
2018-08-09T05:44:53.465Z,70.2
2018-08-09T05:49:53.421Z,67.8
2018-08-09T05:54:53.203Z,67.9
2018-08-09T05:59:53.178Z,66.8
2018-08-09T06:04:53.211Z,65.3
2018-08-09T06:09:53.207Z,64.3
2018-08-09T06:14:53.193Z,64.4
2018-08-09T06:19:55.461Z,62.7
2018-08-09T06:24:55.346Z,63.1
2018-08-09T06:30:04.358Z,60.7
2018-08-09T06:35:04.100Z,60.1
2018-08-09T06:40:04.096Z,60.1
2018-08-09T06:45:04.099Z,58.6
2018-08-09T06:50:04.322Z,58
2018-08-09T06:55:04.357Z,56.8
2018-08-09T07:00:04.331Z,57
2018-08-09T07:05:04.464Z,55.5
2018-08-09T07:10:04.333Z,55.4
2018-08-09T07:15:15.401Z,55.4
2018-08-09T07:20:16.480Z,52.6
2018-08-09T07:25:15.142Z,52.8
2018-08-09T07:30:15.123Z,53.5
2018-08-09T07:35:15.126Z,51.1
2018-08-09T07:40:15.345Z,51.7
2018-08-09T07:45:15.350Z,51.5
2018-08-09T07:50:15.140Z,50.4
2018-08-09T07:55:15.318Z,48.4
2018-08-09T08:00:28.627Z,48.8
2018-08-09T08:05:28.072Z,49.3
2018-08-09T08:10:28.077Z,48.6
2018-08-09T08:15:28.128Z,48.3
2018-08-09T08:20:28.252Z,48.4
2018-08-09T08:25:28.230Z,48.4
2018-08-09T08:30:29.063Z,48.6
2018-08-09T08:35:28.246Z,45.5
2018-08-09T08:40:28.201Z,46.1
2018-08-09T08:45:40.796Z,45.7
2018-08-09T08:50:40.398Z,45.7
2018-08-09T08:55:40.512Z,44.3
2018-08-09T09:00:40.406Z,44.3
2018-08-09T09:05:40.619Z,44.9
2018-08-09T09:10:40.394Z,44.9
2018-08-09T09:15:40.610Z,44.4
2018-08-09T09:20:40.526Z,43.4
2018-08-09T09:25:40.521Z,43.3
2018-08-09T09:30:52.262Z,42.5
2018-08-09T09:35:52.011Z,42.4
2018-08-09T09:40:52.003Z,43.1
2018-08-09T09:45:51.978Z,42.4
2018-08-09T09:50:52.028Z,41
2018-08-09T09:55:52.022Z,42.1
2018-08-09T10:00:53.423Z,41
2018-08-09T10:05:52.025Z,40.9
2018-08-09T10:10:52.027Z,40.9
2018-08-09T10:15:52.158Z,38.8
2018-08-09T10:20:52.029Z,39.5
2018-08-09T10:25:52.028Z,39.5
2018-08-09T10:30:52.029Z,37.3
2018-08-09T10:35:52.032Z,37.9
2018-08-09T10:41:04.990Z,37.4
2018-08-09T10:46:04.715Z,36.1
2018-08-09T10:51:04.750Z,35.4
2018-08-09T10:56:04.731Z,35.5
2018-08-09T11:01:04.732Z,34.4
2018-08-09T11:06:04.736Z,34.2
2018-08-09T11:11:04.735Z,32.7
2018-08-09T11:16:04.734Z,33.3
2018-08-09T11:21:04.720Z,32.2
2018-08-09T11:26:16.719Z,31.1
2018-08-09T11:31:16.466Z,30.6
2018-08-09T11:36:16.541Z,31.8
2018-08-09T11:41:16.481Z,29.5
2018-08-09T11:46:16.493Z,29.2
2018-08-09T11:51:16.513Z,28.3
2018-08-09T11:56:16.816Z,26.7
2018-08-09T12:01:17.563Z,25.3
2018-08-09T12:06:17.289Z,25.3
2018-08-09T12:11:29.403Z,26.4
2018-08-09T12:16:29.149Z,25.7
2018-08-09T12:21:29.071Z,26.9
2018-08-09T12:26:29.106Z,26.1
2018-08-09T12:31:29.217Z,25.4
2018-08-09T12:36:29.173Z,26.8
2018-08-09T12:41:29.109Z,26.4
2018-08-09T12:46:29.426Z,25.1
2018-08-09T12:51:29.154Z,26
2018-08-09T12:56:41.730Z,25
2018-08-09T13:01:41.453Z,25.8
2018-08-09T13:06:41.433Z,25.2
2018-08-09T13:11:42.894Z,23.9
2018-08-09T13:16:42.825Z,24.2
2018-08-09T13:21:42.735Z,23.5
2018-08-09T13:26:42.673Z,24.2
2018-08-09T13:31:42.144Z,24.3
2018-08-09T13:36:42.236Z,23.5
2018-08-09T13:41:42.193Z,23.5
2018-08-09T13:46:43.394Z,23.1
2018-08-09T13:51:43.037Z,22.9
2018-08-09T13:56:44.238Z,23.1
2018-08-09T14:01:44.175Z,22.3
2018-08-09T14:06:44.143Z,22.7
2018-08-09T14:11:49.799Z,23
2018-08-09T14:16:49.045Z,23.7
2018-08-09T14:21:49.523Z,21.6
2018-08-09T14:26:47.967Z,22.1
2018-08-09T14:31:52.529Z,22
2018-08-09T14:36:48.024Z,21.8
2018-08-09T14:41:48.012Z,23.3
2018-08-09T14:46:54.764Z,22.1
2018-08-09T14:51:54.464Z,22.5
2018-08-09T14:57:05.532Z,23
2018-08-09T15:02:05.353Z,22.6
2018-08-09T15:07:05.259Z,22.4
2018-08-09T15:12:05.417Z,24
2018-08-09T15:17:05.487Z,24.5
2018-08-09T15:22:05.406Z,23.2
2018-08-09T15:27:05.428Z,24.4
2018-08-09T15:32:08.635Z,25
2018-08-09T15:37:08.396Z,24.1
2018-08-09T15:42:18.486Z,25
2018-08-09T15:47:18.777Z,25.5
2018-08-09T15:52:18.236Z,25.4
2018-08-09T15:57:18.245Z,25.8
2018-08-09T16:02:18.412Z,27
2018-08-09T16:07:18.247Z,26.7
2018-08-09T16:12:18.234Z,25.5
2018-08-09T16:17:18.502Z,27
2018-08-09T16:22:18.514Z,27.1
2018-08-09T16:27:31.321Z,27
2018-08-09T16:32:31.040Z,27.7
2018-08-09T16:37:31.064Z,28.7
2018-08-09T16:42:31.056Z,27.3
2018-08-09T16:47:31.047Z,29
2018-08-09T16:52:31.053Z,28.2
2018-08-09T16:57:31.061Z,29.7
2018-08-09T17:02:36.458Z,28.9
2018-08-09T17:07:36.176Z,28.5
2018-08-09T17:12:48.152Z,29.5
2018-08-09T17:17:47.869Z,29.6
2018-08-09T17:22:47.911Z,29.4
2018-08-09T17:27:47.891Z,30.7
2018-08-09T17:32:47.926Z,30.2
2018-08-09T17:37:47.878Z,30.2
2018-08-09T17:42:47.876Z,31.4
2018-08-09T17:47:50.673Z,30.6
2018-08-09T17:52:50.369Z,31.6
2018-08-09T17:58:02.575Z,32.1
2018-08-09T18:03:02.163Z,31.8
2018-08-09T18:08:02.228Z,32.4
2018-08-09T18:13:02.378Z,33.4
2018-08-09T18:18:02.228Z,33.2
2018-08-09T18:23:02.228Z,34.4
2018-08-09T18:28:02.372Z,34.9
2018-08-09T18:33:02.236Z,35.7
2018-08-09T18:38:02.231Z,35.3
2018-08-09T18:43:14.217Z,35.9
2018-08-09T18:48:13.960Z,36
2018-08-09T18:53:13.951Z,37.2
2018-08-09T18:58:13.990Z,38.2
2018-08-09T19:03:13.968Z,37.7
2018-08-09T19:08:13.966Z,40.3
2018-08-09T19:13:13.969Z,40.2
2018-08-09T19:18:18.123Z,39.7
2018-08-09T19:23:16.411Z,39.1
2018-08-09T19:28:27.947Z,39.4
2018-08-09T19:33:27.635Z,40.9
2018-08-09T19:38:27.673Z,41.2
2018-08-09T19:43:27.674Z,40.6
2018-08-09T19:48:27.684Z,40.4
2018-08-09T19:53:27.628Z,42.6
2018-08-09T19:58:27.628Z,42.7
2018-08-09T20:03:27.640Z,42
2018-08-09T20:08:27.960Z,43.5
2018-08-09T20:13:28.191Z,44.1
2018-08-09T20:18:27.757Z,44.3
2018-08-09T20:23:27.815Z,46.3
2018-08-09T20:28:27.775Z,46.1
2018-08-09T20:33:27.771Z,46
2018-08-09T20:38:40.220Z,45
2018-08-09T20:43:40.070Z,45.2
2018-08-09T20:48:39.943Z,45
2018-08-09T20:53:39.968Z,46.2
2018-08-09T20:58:39.972Z,46.3
2018-08-09T21:03:39.963Z,47.1
2018-08-09T21:08:39.987Z,41.1
2018-08-09T21:13:42.875Z,43.2
2018-08-09T21:18:42.614Z,43.8
2018-08-09T21:23:54.875Z,46.2
2018-08-09T21:28:54.609Z,47.6
2018-08-09T21:33:54.577Z,49.6
2018-08-09T21:38:54.688Z,51.6
2018-08-09T21:43:54.617Z,53.1
2018-08-09T21:48:54.646Z,54.8
2018-08-09T21:53:54.605Z,55.1
2018-08-09T21:58:59.641Z,55.1
2018-08-09T22:03:59.380Z,55.3
2018-08-09T22:09:11.402Z,56.1
2018-08-09T22:14:11.154Z,55.8
2018-08-09T22:19:11.169Z,56.5
2018-08-09T22:24:11.160Z,55.6
2018-08-09T22:29:11.267Z,54.6
2018-08-09T22:34:11.355Z,55
2018-08-09T22:39:11.288Z,56.4
2018-08-09T22:44:11.155Z,55.2
2018-08-09T22:49:11.348Z,56.5
2018-08-09T22:54:23.034Z,56.9
2018-08-09T22:59:22.872Z,57.1
2018-08-09T23:04:22.759Z,57.4
2018-08-09T23:09:22.981Z,56.4
2018-08-09T23:14:22.713Z,57.5
2018-08-09T23:19:22.746Z,57.1
2018-08-09T23:24:22.965Z,58
2018-08-09T23:29:22.909Z,58.7
2018-08-09T23:34:23.125Z,58.5
2018-08-09T23:39:34.914Z,59.2
2018-08-09T23:44:34.638Z,60.3
2018-08-09T23:49:34.793Z,60.5
2018-08-09T23:54:34.647Z,60.2
2018-08-09T23:59:34.654Z,59.4
